createdAt,value
2018-07-02T00:00:19.122Z,69.00
2018-07-02T00:02:47.829Z,69.60
2018-07-02T00:05:17.164Z,69.50
2018-07-02T00:07:46.182Z,70.10
2018-07-02T00:10:14.885Z,69.90
2018-07-02T00:12:43.920Z,70.20
2018-07-02T00:15:12.942Z,70.30
2018-07-02T00:17:41.853Z,70.40
2018-07-02T00:20:10.888Z,70.80
2018-07-02T00:22:39.881Z,71.10
2018-07-02T00:25:08.923Z,70.90
2018-07-02T00:27:37.943Z,71.60
2018-07-02T00:30:07.613Z,71.60
2018-07-02T00:32:36.317Z,71.60
2018-07-02T00:35:05.589Z,71.60
2018-07-02T00:37:34.449Z,71.60
2018-07-02T00:40:03.480Z,71.60
2018-07-02T00:42:32.174Z,71.60
2018-07-02T00:45:00.824Z,71.90
2018-07-02T00:47:29.508Z,71.90
2018-07-02T00:49:58.534Z,71.30
2018-07-02T00:52:27.216Z,71.90
2018-07-02T00:54:56.195Z,72.00
2018-07-02T00:57:25.248Z,71.70
2018-07-02T00:59:53.925Z,71.90
2018-07-02T01:02:22.920Z,72.10
2018-07-02T01:04:51.609Z,72.50
2018-07-02T01:07:20.953Z,72.30
2018-07-02T01:09:49.637Z,72.50
2018-07-02T01:12:19.412Z,72.70
2018-07-02T01:14:48.504Z,72.60
2018-07-02T01:17:17.548Z,72.40
2018-07-02T01:19:46.412Z,72.90
2018-07-02T01:22:15.764Z,73.30
2018-07-02T01:24:44.751Z,73.70
2018-07-02T01:27:13.590Z,73.30
2018-07-02T01:29:42.618Z,73.70
2018-07-02T01:32:11.313Z,73.60
2018-07-02T01:34:40.007Z,73.60
2018-07-02T01:37:09.004Z,74.00
2018-07-02T01:39:38.093Z,74.20
2018-07-02T01:42:07.112Z,74.60
2018-07-02T01:44:35.785Z,74.60
2018-07-02T01:47:04.489Z,75.00
2018-07-02T01:49:32.988Z,74.80
2018-07-02T01:52:02.337Z,75.00
2018-07-02T01:54:31.341Z,74.80
2018-07-02T01:57:00.077Z,74.80
2018-07-02T01:59:28.767Z,75.00
2018-07-02T02:01:57.444Z,75.00
2018-07-02T02:04:26.864Z,75.20
2018-07-02T02:06:55.961Z,76.00
2018-07-02T02:09:24.677Z,75.90
2018-07-02T02:11:53.676Z,76.30
2018-07-02T02:14:22.529Z,76.60
2018-07-02T02:16:51.879Z,76.70
2018-07-02T02:19:20.597Z,76.80
2018-07-02T02:21:49.292Z,76.70
2018-07-02T02:24:17.995Z,76.70
2018-07-02T02:26:46.665Z,77.60
2018-07-02T02:29:15.357Z,77.40
2018-07-02T02:31:45.264Z,77.70
2018-07-02T02:34:13.976Z,77.90
2018-07-02T02:36:42.932Z,77.70
2018-07-02T02:39:14.967Z,78.00
2018-07-02T02:41:43.988Z,77.60
2018-07-02T02:44:12.669Z,78.30
2018-07-02T02:46:41.373Z,78.50
2018-07-02T02:49:10.215Z,78.50
2018-07-02T02:51:39.288Z,78.50
2018-07-02T02:56:36.480Z,79.80
2018-07-02T02:59:05.248Z,79.60
2018-07-02T03:01:34.411Z,80.10
2018-07-02T03:04:03.126Z,80.50
2018-07-02T03:06:31.844Z,81.00
2018-07-02T03:09:01.460Z,81.10
2018-07-02T03:11:30.790Z,81.20
2018-07-02T03:13:59.837Z,82.00
2018-07-02T03:16:29.029Z,82.30
2018-07-02T03:18:57.750Z,82.40
2018-07-02T03:21:27.097Z,82.70
2018-07-02T03:23:56.125Z,82.90
2018-07-02T03:26:25.137Z,83.10
2018-07-02T03:28:53.642Z,82.90
2018-07-02T03:31:22.660Z,83.80
2018-07-02T03:33:51.504Z,84.10
2018-07-02T03:36:20.541Z,83.80
2018-07-02T03:38:50.041Z,84.00
2018-07-02T03:41:18.719Z,84.20
2018-07-02T03:43:47.416Z,83.40
2018-07-02T03:46:16.705Z,84.00
2018-07-02T03:48:45.681Z,83.90
2018-07-02T03:51:14.520Z,83.90
2018-07-02T03:53:43.328Z,83.20
2018-07-02T03:56:12.516Z,83.80
2018-07-02T03:58:41.199Z,83.80
2018-07-02T04:01:10.231Z,83.90
2018-07-02T04:03:38.904Z,83.40
2018-07-02T04:06:07.886Z,83.80
2018-07-02T04:08:36.904Z,84.10
2018-07-02T04:11:05.926Z,84.00
2018-07-02T04:13:34.965Z,84.50
2018-07-02T04:19:36.912Z,84.50
2018-07-02T04:22:06.256Z,84.30
2018-07-02T04:24:35.105Z,84.00
2018-07-02T04:27:04.114Z,83.70
2018-07-02T04:29:32.815Z,83.50
2018-07-02T04:32:01.841Z,83.40
2018-07-02T04:34:30.885Z,83.40
2018-07-02T04:36:59.547Z,83.40
2018-07-02T04:39:28.599Z,83.20
2018-07-02T04:41:57.279Z,82.60
2018-07-02T04:44:26.257Z,83.00
2018-07-02T04:46:55.301Z,82.20
2018-07-02T04:49:24.313Z,82.00
2018-07-02T04:51:53.098Z,81.90
2018-07-02T04:54:22.826Z,81.60
2018-07-02T04:56:51.461Z,81.30
2018-07-02T04:59:20.136Z,81.20
2018-07-02T05:01:49.217Z,81.00
2018-07-02T05:04:17.695Z,80.40
2018-07-02T05:06:46.608Z,80.10
2018-07-02T05:09:15.408Z,80.20
2018-07-02T05:11:44.229Z,80.50
2018-07-02T05:14:13.040Z,80.60
2018-07-02T05:16:41.534Z,80.60
2018-07-02T05:19:10.368Z,80.50
2018-07-02T05:21:39.490Z,80.60
2018-07-02T05:24:08.010Z,80.20
2018-07-02T05:26:36.505Z,80.50
2018-07-02T05:29:05.004Z,80.40
2018-07-02T05:34:25.008Z,80.40
2018-07-02T05:36:54.131Z,80.70
2018-07-02T05:39:23.986Z,80.30
2018-07-02T05:41:52.812Z,79.70
2018-07-02T05:44:22.342Z,79.50
2018-07-02T05:46:50.867Z,79.20
2018-07-02T05:49:19.387Z,79.60
2018-07-02T05:51:48.368Z,79.60
2018-07-02T05:54:16.848Z,79.40
2018-07-02T05:56:46.281Z,79.00
2018-07-02T05:59:15.505Z,78.80
2018-07-02T06:01:44.002Z,78.60
2018-07-02T06:04:12.818Z,78.30
2018-07-02T06:06:41.658Z,78.00
2018-07-02T06:09:11.474Z,77.90
2018-07-02T06:11:40.962Z,77.70
2018-07-02T06:14:11.185Z,77.70
2018-07-02T06:16:39.917Z,77.60
2018-07-02T06:19:08.675Z,77.40
2018-07-02T06:21:37.848Z,77.30
2018-07-02T06:24:06.677Z,76.90
2018-07-02T06:26:35.172Z,76.40
2018-07-02T06:29:04.520Z,76.40
2018-07-02T06:31:33.316Z,76.00
2018-07-02T06:34:01.811Z,75.70
2018-07-02T06:36:30.673Z,75.20
2018-07-02T06:39:00.392Z,74.80
2018-07-02T06:41:29.560Z,74.60
2018-07-02T06:43:58.058Z,74.50
2018-07-02T06:46:26.620Z,74.20
2018-07-02T06:48:55.129Z,73.60
2018-07-02T06:51:23.657Z,73.60
2018-07-02T06:53:52.519Z,73.80
2018-07-02T06:58:49.929Z,72.90
2018-07-02T07:01:19.179Z,73.00
2018-07-02T07:03:54.363Z,72.80
2018-07-02T07:06:22.848Z,72.00
2018-07-02T07:08:51.725Z,71.80
2018-07-02T07:11:20.549Z,71.70
2018-07-02T07:13:49.055Z,71.00
2018-07-02T07:16:17.562Z,70.60
2018-07-02T07:18:46.257Z,70.20
2018-07-02T07:21:14.757Z,69.20
2018-07-02T07:23:44.274Z,69.30
2018-07-02T07:26:13.133Z,69.10
2018-07-02T07:28:41.640Z,68.70
2018-07-02T07:31:10.544Z,68.80
2018-07-02T07:33:39.174Z,67.80
2018-07-02T07:36:08.351Z,67.20
2018-07-02T07:38:37.158Z,67.00
2018-07-02T07:41:06.383Z,66.70
2018-07-02T07:43:35.210Z,66.50
2018-07-02T07:46:04.090Z,65.80
2018-07-02T07:48:32.571Z,64.60
2018-07-02T07:51:01.050Z,63.90
2018-07-02T07:53:30.559Z,63.80
2018-07-02T07:55:59.389Z,63.30
2018-07-02T07:59:52.175Z,62.90
2018-07-02T08:02:21.243Z,63.10
2018-07-02T08:04:50.061Z,62.30
2018-07-02T08:07:18.543Z,61.30
2018-07-02T08:09:47.749Z,61.70
2018-07-02T08:12:17.291Z,60.10
2018-07-02T08:14:46.167Z,60.60
2018-07-02T08:17:15.061Z,59.70
2018-07-02T08:19:43.885Z,59.70
2018-07-02T08:22:12.687Z,59.70
2018-07-02T08:24:41.220Z,59.00
2018-07-02T08:27:09.720Z,59.10
2018-07-02T08:29:38.349Z,59.00
2018-07-02T08:32:06.908Z,59.00
2018-07-02T08:34:35.730Z,59.10
2018-07-02T08:37:04.561Z,57.40
2018-07-02T08:39:34.679Z,57.60
2018-07-02T08:42:03.183Z,58.00
2018-07-02T08:44:31.694Z,56.40
2018-07-02T08:47:00.561Z,56.10
2018-07-02T08:49:29.112Z,55.90
2018-07-02T08:51:57.942Z,56.10
2018-07-02T08:54:26.437Z,54.50
2018-07-02T08:56:55.265Z,54.40
2018-07-02T08:59:23.779Z,54.60
2018-07-02T09:01:52.610Z,53.80
2018-07-02T09:04:21.108Z,54.50
2018-07-02T09:06:49.897Z,54.30
2018-07-02T09:09:18.975Z,51.40
2018-07-02T09:11:47.495Z,50.50
2018-07-02T09:14:16.694Z,51.00
2018-07-02T09:16:45.193Z,51.20
2018-07-02T09:19:13.884Z,54.10
2018-07-02T09:21:42.405Z,54.70
2018-07-02T09:24:11.487Z,53.90
2018-07-02T09:26:39.973Z,52.40
2018-07-02T09:29:08.483Z,53.80
2018-07-02T09:31:37.340Z,53.80
2018-07-02T09:34:05.855Z,53.10
2018-07-02T09:36:34.683Z,52.30
2018-07-02T09:39:03.961Z,51.40
2018-07-02T09:41:32.939Z,51.00
2018-07-02T09:44:01.442Z,51.80
2018-07-02T09:46:30.888Z,52.20
2018-07-02T09:48:59.394Z,51.80
2018-07-02T09:51:28.235Z,51.30
2018-07-02T09:54:27.659Z,51.70
2018-07-02T09:56:56.598Z,51.90
2018-07-02T09:59:26.548Z,50.70
2018-07-02T10:01:55.931Z,50.40
2018-07-02T10:04:24.772Z,51.30
2018-07-02T10:06:53.843Z,51.30
2018-07-02T10:09:22.382Z,50.10
2018-07-02T10:11:51.152Z,49.90
2018-07-02T10:14:19.659Z,50.00
2018-07-02T10:16:48.513Z,50.00
2018-07-02T10:19:17.358Z,48.40
2018-07-02T10:21:46.189Z,48.10
2018-07-02T10:24:14.687Z,49.00
2018-07-02T10:26:43.859Z,47.10
2018-07-02T10:29:13.351Z,47.80
2018-07-02T10:31:42.093Z,47.80
2018-07-02T10:34:10.654Z,47.10
2018-07-02T10:36:38.869Z,47.50
2018-07-02T10:39:08.826Z,45.80
2018-07-02T10:41:38.197Z,46.60
2018-07-02T10:44:07.117Z,46.40
2018-07-02T10:46:35.676Z,46.10
2018-07-02T10:49:04.266Z,45.00
2018-07-02T10:51:32.509Z,44.20
2018-07-02T10:54:01.136Z,45.00
2018-07-02T10:56:29.753Z,44.90
2018-07-02T10:58:58.333Z,44.00
2018-07-02T11:01:26.932Z,43.70
2018-07-02T11:03:55.536Z,43.70
2018-07-02T11:06:23.805Z,43.50
2018-07-02T11:08:52.403Z,44.10
2018-07-02T11:11:21.588Z,43.90
2018-07-02T11:13:50.000Z,44.60
2018-07-02T11:16:19.126Z,43.40
2018-07-02T11:18:47.878Z,42.70
2018-07-02T11:21:16.460Z,42.80
2018-07-02T11:23:45.015Z,41.80
2018-07-02T11:26:13.395Z,42.80
2018-07-02T11:28:42.321Z,43.20
2018-07-02T11:31:10.846Z,42.20
2018-07-02T11:33:39.440Z,42.60
2018-07-02T11:36:08.000Z,42.70
2018-07-02T11:38:36.245Z,42.70
2018-07-02T11:41:04.834Z,41.80
2018-07-02T11:43:33.056Z,42.20
2018-07-02T11:46:01.996Z,41.00
2018-07-02T11:48:30.557Z,41.50
2018-07-02T11:50:59.306Z,39.90
2018-07-02T11:53:27.559Z,39.50
2018-07-02T11:55:56.100Z,37.70
2018-07-02T11:58:24.306Z,38.30
2018-07-02T12:00:52.544Z,39.40
2018-07-02T12:03:20.866Z,39.70
2018-07-02T12:05:49.445Z,39.50
2018-07-02T12:08:18.000Z,38.30
2018-07-02T12:10:46.224Z,39.10
2018-07-02T12:13:14.764Z,38.90
2018-07-02T12:15:43.374Z,38.80
2018-07-02T12:18:11.958Z,38.20
2018-07-02T12:20:40.537Z,37.60
2018-07-02T12:23:09.133Z,37.40
2018-07-02T12:25:37.716Z,36.60
2018-07-02T12:28:06.965Z,37.50
2018-07-02T12:30:35.360Z,37.70
2018-07-02T12:33:03.932Z,36.90
2018-07-02T12:35:32.175Z,37.20
2018-07-02T12:38:00.429Z,36.40
2018-07-02T12:40:28.672Z,36.50
2018-07-02T12:42:57.304Z,36.80
2018-07-02T12:45:26.201Z,36.60
2018-07-02T12:47:55.508Z,36.10
2018-07-02T12:50:24.747Z,35.20
2018-07-02T12:52:53.101Z,33.80
2018-07-02T12:55:21.333Z,34.80
2018-07-02T12:57:49.582Z,34.60
2018-07-02T13:00:18.024Z,34.20
2018-07-02T13:02:46.614Z,34.60
2018-07-02T13:05:15.238Z,35.20
2018-07-02T13:07:43.501Z,34.00
2018-07-02T13:10:11.745Z,34.60
2018-07-02T13:12:43.167Z,34.50
2018-07-02T13:15:12.432Z,34.80
2018-07-02T13:17:41.048Z,34.10
2018-07-02T13:20:09.342Z,33.50
2018-07-02T13:22:38.853Z,33.50
2018-07-02T13:25:08.132Z,34.10
2018-07-02T13:27:36.716Z,33.80
2018-07-02T13:30:06.039Z,33.80
2018-07-02T13:32:34.386Z,33.60
2018-07-02T13:35:03.125Z,33.60
2018-07-02T13:37:32.240Z,33.50
2018-07-02T13:40:00.510Z,33.30
2018-07-02T13:42:29.066Z,34.00
2018-07-02T13:44:57.369Z,32.80
2018-07-02T13:47:26.518Z,32.70
2018-07-02T13:49:54.740Z,33.20
2018-07-02T13:52:24.300Z,33.30
2018-07-02T13:54:52.557Z,32.40
2018-07-02T13:57:21.509Z,32.70
2018-07-02T13:59:50.408Z,32.60
2018-07-02T14:02:20.085Z,32.70
2018-07-02T14:04:48.373Z,32.50
2018-07-02T14:07:16.622Z,31.90
2018-07-02T14:09:45.750Z,32.10
2018-07-02T14:12:14.454Z,32.10
2018-07-02T14:14:43.145Z,32.60
2018-07-02T14:17:13.981Z,32.70
2018-07-02T14:19:42.546Z,31.60
2018-07-02T14:22:11.462Z,32.30
2018-07-02T14:24:40.237Z,31.20
2018-07-02T14:27:09.678Z,31.80
2018-07-02T14:29:38.376Z,31.20
2018-07-02T14:32:07.808Z,31.80
2018-07-02T14:34:36.101Z,32.00
2018-07-02T14:37:04.838Z,33.00
2018-07-02T14:39:33.489Z,32.90
2018-07-02T14:42:03.164Z,32.50
2018-07-02T14:44:31.459Z,32.60
2018-07-02T14:47:00.729Z,32.70
2018-07-02T14:49:29.325Z,32.60
2018-07-02T14:51:57.949Z,32.80
2018-07-02T14:54:26.434Z,33.10
2018-07-02T14:56:55.736Z,33.50
2018-07-02T14:59:24.674Z,33.90
2018-07-02T15:01:56.006Z,34.00
2018-07-02T15:04:25.290Z,34.60
2018-07-02T15:06:53.709Z,35.10
2018-07-02T15:09:22.330Z,34.80
2018-07-02T15:11:50.605Z,34.60
2018-07-02T15:14:19.202Z,34.60
2018-07-02T15:16:48.526Z,34.50
2018-07-02T15:19:17.553Z,33.90
2018-07-02T15:24:14.377Z,34.70
2018-07-02T15:26:42.970Z,34.30
2018-07-02T15:29:11.931Z,34.50
2018-07-02T15:31:41.895Z,35.10
2018-07-02T15:34:10.204Z,34.80
2018-07-02T15:36:38.471Z,34.80
2018-07-02T15:39:08.601Z,35.00
2018-07-02T15:41:37.566Z,32.90
2018-07-02T15:44:06.456Z,33.80
2018-07-02T15:46:34.751Z,33.60
2018-07-02T15:49:03.017Z,33.80
2018-07-02T15:51:31.222Z,33.40
2018-07-02T15:54:00.864Z,33.80
2018-07-02T15:56:29.421Z,34.40
2018-07-02T15:58:57.996Z,34.60
2018-07-02T16:01:26.610Z,34.10
2018-07-02T16:03:54.873Z,34.00
2018-07-02T16:06:24.093Z,33.90
2018-07-02T16:08:52.705Z,34.00
2018-07-02T16:11:21.326Z,34.10
2018-07-02T16:13:49.917Z,34.40
2018-07-02T16:16:18.171Z,34.00
2018-07-02T16:18:46.764Z,34.10
2018-07-02T16:21:16.668Z,33.90
2018-07-02T16:23:45.233Z,34.10
2018-07-02T16:26:13.792Z,33.60
2018-07-02T16:28:42.978Z,34.00
2018-07-02T16:31:12.158Z,34.40
2018-07-02T16:33:41.251Z,34.40
2018-07-02T16:36:09.558Z,34.30
2018-07-02T16:38:38.609Z,34.50
2018-07-02T16:41:09.903Z,34.60
2018-07-02T16:43:38.879Z,34.70
2018-07-02T16:46:08.281Z,34.60
2018-07-02T16:48:36.888Z,34.70
2018-07-02T16:51:05.520Z,34.30
2018-07-02T16:53:34.310Z,34.40
2018-07-02T16:56:02.961Z,34.90
2018-07-02T16:58:32.040Z,34.90
2018-07-02T17:01:00.657Z,35.40
2018-07-02T17:03:29.671Z,36.10
2018-07-02T17:05:59.100Z,35.50
2018-07-02T17:11:10.131Z,36.00
2018-07-02T17:13:39.324Z,35.80
2018-07-02T17:16:07.754Z,35.70
2018-07-02T17:18:39.867Z,35.80
2018-07-02T17:21:08.146Z,35.90
2018-07-02T17:23:36.418Z,36.00
2018-07-02T17:26:05.111Z,36.00
2018-07-02T17:28:34.011Z,36.30
2018-07-02T17:31:03.020Z,36.40
2018-07-02T17:33:31.269Z,36.60
2018-07-02T17:35:59.502Z,36.70
2018-07-02T17:38:27.756Z,36.60
2018-07-02T17:40:56.432Z,36.70
2018-07-02T17:43:24.700Z,36.70
2018-07-02T17:45:52.974Z,36.90
2018-07-02T17:48:21.585Z,37.00
2018-07-02T17:50:50.553Z,36.90
2018-07-02T17:53:18.785Z,36.80
2018-07-02T17:55:48.016Z,36.90
2018-07-02T17:58:16.635Z,37.30
2018-07-02T18:00:45.142Z,37.30
2018-07-02T18:03:13.771Z,37.50
2018-07-02T18:05:47.493Z,37.40
2018-07-02T18:08:17.425Z,37.20
2018-07-02T18:10:47.389Z,37.30
2018-07-02T18:13:16.925Z,36.80
2018-07-02T18:15:47.816Z,36.40
2018-07-02T18:18:18.879Z,36.90
2018-07-02T18:20:48.290Z,37.60
2018-07-02T18:23:18.424Z,38.10
2018-07-02T18:25:48.849Z,38.20
2018-07-02T18:28:18.827Z,38.40
2018-07-02T18:30:48.828Z,38.30
2018-07-02T18:33:17.117Z,38.70
2018-07-02T18:35:45.769Z,39.00
2018-07-02T18:38:15.379Z,39.20
2018-07-02T18:40:46.955Z,39.50
2018-07-02T18:43:19.689Z,39.40
2018-07-02T18:45:48.993Z,40.30
2018-07-02T18:48:17.877Z,39.80
2018-07-02T18:50:46.765Z,39.80
2018-07-02T18:53:16.452Z,39.60
2018-07-02T18:55:45.902Z,39.90
2018-07-02T18:58:16.529Z,40.30
2018-07-02T19:00:45.059Z,40.50
2018-07-02T19:03:13.865Z,40.70
2018-07-02T19:05:42.633Z,41.40
2018-07-02T19:08:12.408Z,40.80
2018-07-02T19:10:41.901Z,41.00
2018-07-02T19:13:10.889Z,41.20
2018-07-02T19:15:40.065Z,41.50
2018-07-02T19:18:11.476Z,42.20
2018-07-02T19:20:40.392Z,42.50
2018-07-02T19:23:09.441Z,43.20
2018-07-02T19:25:37.970Z,43.00
2018-07-02T19:28:06.822Z,43.30
2018-07-02T19:30:35.571Z,43.40
2018-07-02T19:33:05.095Z,43.60
2018-07-02T19:35:34.078Z,43.80
2018-07-02T19:38:04.085Z,44.30
2018-07-02T19:40:32.957Z,44.50
2018-07-02T19:43:01.528Z,44.50
2018-07-02T19:45:30.050Z,44.80
2018-07-02T19:48:00.512Z,44.90
2018-07-02T19:50:29.508Z,45.30
2018-07-02T19:52:58.441Z,45.60
2018-07-02T19:55:27.345Z,45.80
2018-07-02T19:58:03.105Z,46.20
2018-07-02T20:00:33.629Z,46.40
2018-07-02T20:03:06.513Z,46.60
2018-07-02T20:05:35.487Z,47.00
2018-07-02T20:08:12.552Z,47.30
2018-07-02T20:10:41.096Z,47.50
2018-07-02T20:13:11.526Z,47.60
2018-07-02T20:15:48.574Z,47.70
2018-07-02T20:18:21.087Z,47.80
2018-07-02T20:20:50.488Z,48.00
2018-07-02T20:23:19.372Z,48.20
2018-07-02T20:25:48.597Z,48.10
2018-07-02T20:28:18.041Z,48.40
2018-07-02T20:30:48.477Z,48.90
2018-07-02T20:33:18.332Z,48.80
2018-07-02T20:35:49.951Z,49.00
2018-07-02T20:38:19.375Z,49.30
2018-07-02T20:40:48.477Z,49.40
2018-07-02T20:43:17.364Z,49.70
2018-07-02T20:45:46.286Z,50.80
2018-07-02T20:48:15.730Z,50.40
2018-07-02T20:50:44.824Z,50.70
2018-07-02T20:53:13.432Z,50.90
2018-07-02T20:55:43.028Z,51.50
2018-07-02T20:58:12.184Z,51.80
2018-07-02T21:00:41.693Z,52.00
2018-07-02T21:03:22.563Z,52.20
2018-07-02T21:06:45.803Z,52.60
2018-07-02T21:11:22.506Z,52.50
2018-07-02T21:14:30.643Z,53.00
2018-07-02T21:25:39.359Z,53.60
2018-07-02T21:28:37.162Z,53.90
2018-07-02T21:31:07.932Z,53.90
2018-07-02T21:33:44.480Z,54.30
2018-07-02T21:39:28.917Z,55.20
2018-07-02T21:42:19.484Z,55.40
2018-07-02T21:44:58.816Z,55.40
2018-07-02T21:47:31.356Z,55.50
2018-07-02T21:50:11.378Z,55.70
2018-07-02T21:54:24.642Z,55.70
2018-07-02T21:56:53.492Z,55.70
2018-07-02T21:59:22.963Z,55.80
2018-07-02T22:01:51.525Z,55.80
2018-07-02T22:04:20.064Z,56.00
2018-07-02T22:06:50.102Z,56.20
2018-07-02T22:09:19.353Z,56.20
2018-07-02T22:11:47.933Z,56.10
2018-07-02T22:14:16.470Z,56.20
2018-07-02T22:16:45.032Z,56.30
2018-07-02T22:19:13.868Z,56.70
2018-07-02T22:21:42.801Z,56.60
2018-07-02T22:24:11.391Z,56.80
2018-07-02T22:26:39.931Z,57.10
2018-07-02T22:29:12.441Z,57.10
2018-07-02T22:31:42.003Z,57.30
2018-07-02T22:34:19.263Z,57.60
2018-07-02T22:36:48.486Z,57.70
2018-07-02T22:39:18.334Z,58.00
2018-07-02T22:41:51.361Z,57.90
2018-07-02T22:44:20.223Z,58.20
2018-07-02T22:47:08.455Z,58.30
2018-07-02T22:49:44.739Z,58.50
2018-07-02T22:52:35.718Z,58.50
2018-07-02T22:59:02.856Z,59.00
2018-07-02T23:01:31.756Z,59.00
2018-07-02T23:04:01.139Z,59.30
2018-07-02T23:06:30.315Z,60.00
2018-07-02T23:08:58.795Z,59.40
2018-07-02T23:13:56.822Z,59.30
2018-07-02T23:16:26.317Z,59.90
2018-07-02T23:18:54.873Z,59.50
2018-07-02T23:21:24.492Z,59.50
2018-07-02T23:23:54.974Z,59.70
2018-07-02T23:26:25.006Z,59.90
2018-07-02T23:28:59.084Z,60.20
2018-07-02T23:31:27.665Z,60.30
2018-07-02T23:33:56.585Z,60.70
2018-07-02T23:36:25.821Z,61.00
2018-07-02T23:38:54.345Z,61.30
2018-07-02T23:41:23.728Z,61.50
2018-07-02T23:43:52.230Z,61.60
2018-07-02T23:46:21.081Z,61.80
2018-07-02T23:48:49.925Z,62.10
2018-07-02T23:51:19.490Z,62.40
2018-07-02T23:53:48.310Z,62.40
2018-07-02T23:56:17.158Z,62.50
2018-07-02T23:58:46.022Z,62.40
